Ashby, Nebraska
Current Conditions -  °F | °C
As of 7:53 PM on Monday 22 Dec 2014 (Local Time) from KAIA Reporting Station
Overcast Overcast  
Wind Chill: 18°   Ceiling: 5500
Heat Index: 32°   Visibility: 9mi
Dew Point: 26°   Wind: 30mph
Humidity: 79%   Direction: 310°NW
Pressure: 29.65"   Gusts: 46mph
Location:  42.02°N, 101.93°W
Report Text: KAIA 230253Z AUTO 31026G40KT 9SM BKN055 BKN065 OVC085 00/M03 A2965 RMK AO2 PK WND 31042/0242 SLP058 T00001033 53013
Loading
Personal Weather Stations






























Interactive Weather Map New forecast layout! Learn more

10-Day Weather Forecast

Advertisements
Track Severe Weather on mobile